Time;durP1;ratioP1;P1;durP2;ratioP2;P2;SDS_P1;SDS_P2;PMS_P1;PMS_P2;Temp;Humidity;BMP_temperature;BMP_pressure;BME280_temperature;BME280_humidity;BME280_pressure;Samples;Min_cycle;Max_cycle;Signal;HPM_P1;HPM_P2
2021/04/30 00:00:50;;;;;;;57.42;3.60;;;7.40;1.00;;;;;;5092216;28;20613;-66
2021/04/30 00:03:16;;;;;;;105.75;8.63;;;7.40;1.00;;;;;;5090658;28;20675;-66
2021/04/30 00:05:42;;;;;;;61.20;4.20;;;7.50;1.00;;;;;;5091571;28;20246;-66
2021/04/30 00:08:09;;;;;;;67.95;4.50;;;7.50;1.00;;;;;;5092081;28;20753;-65
2021/04/30 00:10:35;;;;;;;56.85;3.85;;;7.50;1.00;;;;;;5091481;28;20354;-66
2021/04/30 00:13:02;;;;;;;58.35;4.00;;;7.60;1.00;;;;;;5091492;28;20294;-66
2021/04/30 00:15:29;;;;;;;62.03;5.05;;;7.50;1.00;;;;;;5091422;28;20295;-66
2021/04/30 00:17:55;;;;;;;58.90;3.50;;;7.60;1.00;;;;;;5091774;28;20307;-65
2021/04/30 00:20:22;;;;;;;56.75;3.08;;;7.60;1.00;;;;;;5091533;28;20315;-65
2021/04/30 00:22:48;;;;;;;55.90;2.95;;;7.60;1.00;;;;;;5090952;28;20333;-65
2021/04/30 00:25:14;;;;;;;56.97;3.25;;;7.60;1.00;;;;;;5088679;28;20298;-65
2021/04/30 00:27:41;;;;;;;57.70;3.15;;;7.70;1.00;;;;;;5091459;28;20237;-64
2021/04/30 00:30:08;;;;;;;57.03;2.85;;;7.70;1.00;;;;;;5091401;28;20788;-65
2021/04/30 00:32:37;;;;;;;56.78;2.65;;;7.70;1.00;;;;;;5091120;28;20876;-66
2021/04/30 00:35:04;;;;;;;57.55;3.78;;;7.80;1.00;;;;;;5091215;28;20205;-66
2021/04/30 00:37:31;;;;;;;56.60;2.90;;;7.70;1.00;;;;;;5091190;28;20237;-64
2021/04/30 00:39:57;;;;;;;58.75;3.25;;;7.70;1.00;;;;;;5091076;28;20233;-65
2021/04/30 00:42:24;;;;;;;56.20;2.50;;;7.70;1.00;;;;;;5090848;28;20315;-65
2021/04/30 00:44:50;;;;;;;56.78;2.70;;;7.70;1.00;;;;;;5091226;28;20212;-66
2021/04/30 00:47:25;;;;;;;56.83;2.70;;;7.70;1.00;;;;;;5091135;28;20668;-65
2021/04/30 00:49:53;;;;;;;58.88;4.25;;;7.70;1.00;;;;;;5090888;28;20247;-65
2021/04/30 00:52:19;;;;;;;56.25;2.47;;;7.70;1.00;;;;;;5090935;28;20421;-66
2021/04/30 00:54:45;;;;;;;55.97;2.40;;;7.80;1.00;;;;;;5087841;28;20206;-65
2021/04/30 00:57:12;;;;;;;58.95;2.70;;;7.80;1.00;;;;;;5091122;28;20203;-65
2021/04/30 00:59:38;;;;;;;56.10;2.60;;;7.80;1.00;;;;;;5091046;28;20220;-65
2021/04/30 01:02:05;;;;;;;56.20;2.63;;;7.80;1.00;;;;;;5090598;28;20255;-64
2021/04/30 01:04:31;;;;;;;55.97;2.22;;;7.80;1.00;;;;;;5090864;28;20208;-66
2021/04/30 01:06:58;;;;;;;56.20;2.65;;;7.80;1.00;;;;;;5091315;28;20564;-66
2021/04/30 01:09:25;;;;;;;56.03;2.92;;;7.80;1.00;;;;;;5091146;28;20294;-65
2021/04/30 01:11:51;;;;;;;55.65;1.98;;;7.80;1.00;;;;;;5090659;28;20218;-66
2021/04/30 01:14:18;;;;;;;57.72;3.05;;;7.80;1.00;;;;;;5091059;28;20222;-66
2021/04/30 01:16:44;;;;;;;56.10;2.90;;;7.80;1.00;;;;;;5094664;28;20209;-65
2021/04/30 01:19:19;;;;;;;56.08;2.40;;;7.80;1.00;;;;;;5094611;28;20301;-66
2021/04/30 01:21:46;;;;;;;56.78;3.20;;;7.80;1.00;;;;;;5094563;28;20314;-65
2021/04/30 01:24:13;;;;;;;56.30;2.90;;;7.70;1.00;;;;;;5094321;28;20206;-65
2021/04/30 01:26:43;;;;;;;55.90;2.05;;;7.70;1.00;;;;;;5093483;28;20535;-66
2021/04/30 01:29:10;;;;;;;55.90;2.08;;;7.70;1.00;;;;;;5094484;28;20684;-66
2021/04/30 01:31:36;;;;;;;56.53;2.35;;;7.60;1.00;;;;;;5094577;28;20226;-66
2021/04/30 01:34:03;;;;;;;56.20;2.40;;;7.60;1.00;;;;;;5094470;28;20295;-66
2021/04/30 01:36:31;;;;;;;55.95;2.50;;;7.60;1.00;;;;;;5094515;28;20215;-66
2021/04/30 01:38:57;;;;;;;55.67;2.10;;;7.70;1.00;;;;;;5094433;28;20233;-65
2021/04/30 01:41:25;;;;;;;55.88;2.10;;;7.70;1.00;;;;;;5094435;28;20224;-66
2021/04/30 01:43:51;;;;;;;55.67;2.10;;;7.70;1.00;;;;;;5094086;28;20208;-65
2021/04/30 01:46:18;;;;;;;55.90;2.10;;;7.60;1.00;;;;;;5094256;28;20312;-65
2021/04/30 01:48:44;;;;;;;56.75;2.88;;;7.60;1.00;;;;;;5094597;28;20216;-65
2021/04/30 01:51:11;;;;;;;56.25;2.72;;;7.60;1.00;;;;;;5094425;28;20235;-65
2021/04/30 01:53:38;;;;;;;55.65;2.10;;;7.60;1.00;;;;;;5094026;28;20217;-64
2021/04/30 01:56:06;;;;;;;55.65;2.00;;;7.60;1.00;;;;;;5094269;28;20205;-65
2021/04/30 01:58:33;;;;;;;56.05;2.13;;;7.60;1.00;;;;;;5094024;28;20208;-66
2021/04/30 02:01:01;;;;;;;56.47;2.20;;;7.60;1.00;;;;;;5094134;28;20312;-65
2021/04/30 02:03:27;;;;;;;56.00;2.28;;;7.60;1.00;;;;;;5093872;28;20228;-65
2021/04/30 02:05:54;;;;;;;55.92;2.33;;;7.70;1.00;;;;;;5094080;28;20296;-65
2021/04/30 02:08:21;;;;;;;55.50;1.90;;;7.70;1.00;;;;;;5094130;28;20211;-65
2021/04/30 02:10:47;;;;;;;56.00;2.30;;;7.70;1.00;;;;;;5093962;28;20281;-65
2021/04/30 02:13:15;;;;;;;55.65;2.00;;;7.70;1.00;;;;;;5093478;28;20239;-64
2021/04/30 02:15:44;;;;;;;55.90;2.20;;;7.70;1.00;;;;;;5093604;28;20223;-64
2021/04/30 02:18:11;;;;;;;56.00;2.40;;;7.70;1.00;;;;;;5093926;28;20680;-65
2021/04/30 02:20:38;;;;;;;55.83;2.47;;;7.70;1.00;;;;;;5093636;28;20260;-65
2021/04/30 02:23:04;;;;;;;55.97;2.20;;;7.70;1.00;;;;;;5093343;28;20310;-65
2021/04/30 02:25:31;;;;;;;55.80;2.33;;;7.70;1.00;;;;;;5093612;28;20594;-66
2021/04/30 02:27:59;;;;;;;55.60;2.20;;;7.70;1.00;;;;;;5092807;28;20740;-66
2021/04/30 02:30:28;;;;;;;56.00;2.10;;;7.80;1.00;;;;;;5093728;28;20504;-65
2021/04/30 02:32:56;;;;;;;55.70;2.10;;;7.80;1.00;;;;;;5093360;28;20205;-67
2021/04/30 02:35:25;;;;;;;63.40;3.25;;;7.80;1.00;;;;;;5093271;28;20200;-66
2021/04/30 02:37:51;;;;;;;56.00;2.10;;;7.80;1.00;;;;;;5093466;28;20625;-66
2021/04/30 02:40:21;;;;;;;55.55;2.10;;;7.70;1.00;;;;;;5093301;28;20578;-65
2021/04/30 02:42:47;;;;;;;55.80;2.30;;;7.70;1.00;;;;;;5093017;28;20224;-65
2021/04/30 02:45:16;;;;;;;56.00;2.05;;;7.70;1.00;;;;;;5093028;28;20285;-66
2021/04/30 02:47:46;;;;;;;56.30;3.20;;;7.70;1.00;;;;;;5093363;28;20291;-65
2021/04/30 02:50:15;;;;;;;55.90;2.10;;;7.60;1.00;;;;;;5093705;28;20255;-66
2021/04/30 02:52:42;;;;;;;55.78;2.40;;;7.60;1.00;;;;;;5093312;28;20294;-66
2021/04/30 02:55:09;;;;;;;56.08;2.20;;;7.50;1.00;;;;;;5093227;28;20236;-65
2021/04/30 02:57:36;;;;;;;55.50;2.08;;;7.50;1.00;;;;;;5093409;28;20235;-66
2021/04/30 03:00:04;;;;;;;55.60;2.10;;;7.50;1.00;;;;;;5093187;28;20225;-65
2021/04/30 03:02:31;;;;;;;55.80;2.05;;;7.40;1.00;;;;;;5092709;28;20256;-66
2021/04/30 03:04:57;;;;;;;57.15;3.03;;;7.40;1.00;;;;;;5092803;28;20295;-65
2021/04/30 03:07:25;;;;;;;55.60;2.10;;;7.30;1.00;;;;;;5092902;28;20208;-65
2021/04/30 03:09:51;;;;;;;56.10;2.72;;;7.30;1.00;;;;;;5093122;28;20224;-65
2021/04/30 03:12:17;;;;;;;55.67;1.90;;;7.20;1.00;;;;;;5092413;28;20208;-66
2021/04/30 03:14:44;;;;;;;55.95;2.20;;;7.20;1.00;;;;;;5092689;28;20200;-65
2021/04/30 03:17:10;;;;;;;55.70;2.00;;;7.10;1.00;;;;;;5092621;28;20231;-66
2021/04/30 03:19:37;;;;;;;56.20;2.72;;;7.10;1.00;;;;;;5092720;28;20260;-65
2021/04/30 03:22:03;;;;;;;55.67;2.30;;;7.10;1.00;;;;;;5092177;28;20259;-66
2021/04/30 03:24:30;;;;;;;55.55;2.03;;;7.10;1.00;;;;;;5092381;28;20296;-66
2021/04/30 03:26:57;;;;;;;55.80;2.10;;;7.10;1.00;;;;;;5092602;28;20299;-66
2021/04/30 03:29:24;;;;;;;55.78;2.00;;;7.20;1.00;;;;;;5092448;28;20677;-65
2021/04/30 03:31:50;;;;;;;55.78;2.47;;;7.30;1.00;;;;;;5092198;28;20295;-66
2021/04/30 03:34:16;;;;;;;55.90;2.47;;;7.20;1.00;;;;;;5092327;28;20295;-65
2021/04/30 03:36:43;;;;;;;55.90;2.15;;;7.30;1.00;;;;;;5092357;28;20216;-65
2021/04/30 03:39:09;;;;;;;55.58;2.20;;;7.30;1.00;;;;;;5092539;28;20360;-65
2021/04/30 03:41:37;;;;;;;56.30;3.20;;;7.30;1.00;;;;;;5092332;28;20334;-66
2021/04/30 03:44:04;;;;;;;55.55;2.03;;;7.30;1.00;;;;;;5091787;28;20338;-66
2021/04/30 03:46:30;;;;;;;55.78;2.40;;;7.30;1.00;;;;;;5092309;28;20296;-64
2021/04/30 03:48:57;;;;;;;55.75;2.55;;;7.40;1.00;;;;;;5092202;28;20466;-65
2021/04/30 03:51:23;;;;;;;55.70;2.03;;;7.40;1.00;;;;;;5091910;28;20324;-65
2021/04/30 03:53:50;;;;;;;55.78;2.10;;;7.40;1.00;;;;;;5091551;28;20244;-66
2021/04/30 03:56:16;;;;;;;55.67;2.03;;;7.40;1.00;;;;;;5092146;28;20214;-66
2021/04/30 03:58:43;;;;;;;55.58;2.00;;;7.40;1.00;;;;;;5092082;28;20629;-65
2021/04/30 04:01:10;;;;;;;56.58;3.03;;;7.40;1.00;;;;;;5091983;28;20235;-65
2021/04/30 04:03:36;;;;;;;55.90;2.20;;;7.40;1.00;;;;;;5091238;28;20641;-66
2021/04/30 04:06:03;;;;;;;56.00;2.40;;;7.40;1.00;;;;;;5092043;28;20860;-65
2021/04/30 04:08:29;;;;;;;55.80;2.10;;;7.40;1.00;;;;;;5091885;28;20208;-65
2021/04/30 04:10:55;;;;;;;55.90;2.08;;;7.40;1.00;;;;;;5092169;28;20708;-65
2021/04/30 04:13:23;;;;;;;57.00;2.85;;;7.40;1.00;;;;;;5091353;28;20268;-65
2021/04/30 04:15:51;;;;;;;56.40;2.75;;;7.40;1.00;;;;;;5091462;28;20301;-65
2021/04/30 04:18:19;;;;;;;55.78;2.08;;;7.40;1.00;;;;;;5091563;28;20216;-66
2021/04/30 04:20:46;;;;;;;55.78;2.30;;;7.30;1.00;;;;;;5091762;28;20742;-65
2021/04/30 04:23:13;;;;;;;56.00;2.42;;;7.40;1.00;;;;;;5091596;28;20227;-66
2021/04/30 04:25:39;;;;;;;55.72;2.08;;;7.40;1.00;;;;;;5091488;28;20206;-65
2021/04/30 04:28:06;;;;;;;55.83;2.38;;;7.40;1.00;;;;;;5092268;28;20257;-65
2021/04/30 04:30:33;;;;;;;56.28;3.13;;;7.40;1.00;;;;;;5091580;28;20255;-65
2021/04/30 04:33:01;;;;;;;55.70;2.20;;;7.40;1.00;;;;;;5091344;28;20374;-65
2021/04/30 04:35:28;;;;;;;56.00;2.65;;;7.50;1.00;;;;;;5091627;28;20602;-66
2021/04/30 04:37:54;;;;;;;55.72;2.10;;;7.50;1.00;;;;;;5091715;28;20590;-65
2021/04/30 04:40:22;;;;;;;56.00;2.20;;;7.40;1.00;;;;;;5091584;28;20315;-65
2021/04/30 04:42:48;;;;;;;55.83;2.10;;;7.40;1.00;;;;;;5091134;28;20220;-65
2021/04/30 04:45:16;;;;;;;55.75;2.20;;;7.40;1.00;;;;;;5091177;28;20207;-65
2021/04/30 04:47:43;;;;;;;55.67;2.30;;;7.50;1.00;;;;;;5091725;28;20640;-65
2021/04/30 04:50:11;;;;;;;55.90;2.28;;;7.50;1.00;;;;;;5093035;28;20227;-66
2021/04/30 04:52:38;;;;;;;55.67;2.28;;;7.50;1.00;;;;;;5095087;28;20220;-66
2021/04/30 04:55:06;;;;;;;55.55;2.03;;;7.50;1.00;;;;;;5095445;28;20299;-65
2021/04/30 04:57:32;;;;;;;55.78;2.20;;;7.60;1.00;;;;;;5095477;28;20295;-65
2021/04/30 04:59:58;;;;;;;55.67;2.20;;;7.60;1.00;;;;;;5095229;28;20224;-65
2021/04/30 05:02:25;;;;;;;55.78;2.00;;;7.70;1.00;;;;;;5095170;28;20224;-66
2021/04/30 05:04:51;;;;;;;55.67;2.08;;;7.70;1.00;;;;;;5095325;28;20231;-65
2021/04/30 05:07:19;;;;;;;55.78;2.08;;;7.70;1.00;;;;;;5095411;28;20240;-66
2021/04/30 05:09:46;;;;;;;56.35;2.20;;;7.70;1.00;;;;;;5095193;28;20226;-66
2021/04/30 05:12:12;;;;;;;56.00;2.40;;;7.70;1.00;;;;;;5094745;28;20204;-65
2021/04/30 05:14:39;;;;;;;56.55;2.83;;;7.80;1.00;;;;;;5094846;28;20209;-66
2021/04/30 05:17:05;;;;;;;57.30;2.20;;;7.80;1.00;;;;;;5095221;28;20234;-65
2021/04/30 05:19:31;;;;;;;55.70;2.20;;;7.90;1.00;;;;;;5095149;28;20639;-65
2021/04/30 05:21:58;;;;;;;55.90;2.55;;;8.00;1.00;;;;;;5094666;28;20491;-65
2021/04/30 05:24:26;;;;;;;57.35;3.30;;;7.90;1.00;;;;;;5094747;28;20226;-65
2021/04/30 05:26:53;;;;;;;55.78;2.15;;;8.00;1.00;;;;;;5094838;28;20200;-65
2021/04/30 05:29:19;;;;;;;55.80;2.17;;;8.00;1.00;;;;;;5094986;28;20614;-65
2021/04/30 05:31:45;;;;;;;55.80;2.00;;;8.00;1.00;;;;;;5095120;28;20210;-65
2021/04/30 05:34:12;;;;;;;56.67;3.60;;;8.00;1.00;;;;;;5094229;28;20297;-66
2021/04/30 05:36:38;;;;;;;55.67;2.00;;;8.10;1.00;;;;;;5094611;28;20742;-65
2021/04/30 05:39:05;;;;;;;56.17;2.45;;;8.10;1.00;;;;;;5094547;28;20233;-65
2021/04/30 05:41:33;;;;;;;55.60;2.30;;;8.20;1.00;;;;;;5094369;28;20279;-65
2021/04/30 05:43:59;;;;;;;55.58;2.20;;;8.30;1.00;;;;;;5094148;28;20488;-66
2021/04/30 05:46:25;;;;;;;55.70;1.90;;;8.40;1.00;;;;;;5094582;28;20202;-65
2021/04/30 05:48:52;;;;;;;55.47;2.10;;;8.50;1.00;;;;;;5094379;28;20450;-66
2021/04/30 05:51:18;;;;;;;55.97;2.95;;;8.50;1.00;;;;;;5094276;28;20986;-66
2021/04/30 05:53:44;;;;;;;55.63;2.17;;;8.60;1.00;;;;;;5094038;28;20288;-65
2021/04/30 05:56:11;;;;;;;55.60;2.03;;;8.70;1.00;;;;;;5093991;28;20756;-65
2021/04/30 05:58:38;;;;;;;55.57;2.23;;;8.80;1.00;;;;;;5094019;28;20486;-66
2021/04/30 06:01:04;;;;;;;55.63;1.87;;;8.80;1.00;;;;;;5093349;28;20506;-65
2021/04/30 06:03:30;;;;;;;55.73;2.03;;;8.80;1.00;;;;;;5093410;28;20570;-65
2021/04/30 06:05:57;;;;;;;55.60;1.90;;;8.90;1.00;;;;;;5094099;28;20448;-65
2021/04/30 06:08:23;;;;;;;59.83;2.38;;;9.00;1.00;;;;;;5093985;28;20532;-73
2021/04/30 06:10:50;;;;;;;55.40;2.10;;;9.10;1.00;;;;;;5093784;28;20316;-65
2021/04/30 06:13:16;;;;;;;55.33;1.70;;;9.10;1.00;;;;;;5093792;28;20443;-65
2021/04/30 06:15:43;;;;;;;55.70;2.30;;;9.30;1.00;;;;;;5093543;28;20448;-65
2021/04/30 06:18:10;;;;;;;55.50;1.80;;;9.50;1.00;;;;;;5094059;28;20548;-66
2021/04/30 06:20:36;;;;;;;56.20;2.40;;;9.60;1.00;;;;;;5093588;28;20552;-65
2021/04/30 06:23:02;;;;;;;55.60;2.40;;;9.80;1.00;;;;;;5093442;28;20475;-65
2021/04/30 06:25:29;;;;;;;56.00;2.30;;;10.00;1.00;;;;;;5093382;28;20535;-65
2021/04/30 06:27:55;;;;;;;55.37;1.87;;;10.10;1.00;;;;;;5093987;28;20450;-65
2021/04/30 06:30:21;;;;;;;55.47;1.90;;;10.10;1.00;;;;;;5093475;28;20553;-65
2021/04/30 06:32:49;;;;;;;55.67;2.10;;;10.10;1.00;;;;;;5093277;28;20531;-66
2021/04/30 06:35:15;;;;;;;55.80;2.33;;;10.10;1.00;;;;;;5093302;28;20450;-65
2021/04/30 06:37:41;;;;;;;55.57;1.80;;;10.20;1.00;;;;;;5093478;28;20452;-66
2021/04/30 06:40:09;;;;;;;56.07;2.33;;;10.20;1.00;;;;;;5093242;28;20525;-66
2021/04/30 06:42:35;;;;;;;59.00;4.33;;;10.10;1.00;;;;;;5093192;28;20483;-65
2021/04/30 06:45:02;;;;;;;56.27;2.10;;;10.10;1.00;;;;;;5093318;28;20537;-66
2021/04/30 06:47:29;;;;;;;56.10;2.63;;;10.00;1.00;;;;;;5093386;28;20447;-65
2021/04/30 06:49:56;;;;;;;55.57;1.97;;;10.00;1.00;;;;;;5093220;28;20546;-65
2021/04/30 06:52:22;;;;;;;55.80;2.13;;;9.90;1.00;;;;;;5092797;28;20546;-65
2021/04/30 06:54:49;;;;;;;55.87;2.40;;;9.80;1.00;;;;;;5093224;28;20448;-64
2021/04/30 06:57:17;;;;;;;55.50;2.30;;;9.80;1.00;;;;;;5093124;28;20480;-64
2021/04/30 06:59:43;;;;;;;55.67;2.47;;;9.70;1.00;;;;;;5093101;28;20559;-63
2021/04/30 07:02:10;;;;;;;56.00;2.60;;;9.80;1.00;;;;;;5092715;28;20477;-64
2021/04/30 07:04:37;;;;;;;55.73;2.10;;;9.80;1.00;;;;;;5093047;28;20886;-65
2021/04/30 07:07:05;;;;;;;55.67;2.27;;;9.90;1.00;;;;;;5092678;28;20454;-63
2021/04/30 07:09:31;;;;;;;55.50;2.07;;;9.90;1.00;;;;;;5092643;28;20494;-65
2021/04/30 07:11:58;;;;;;;55.33;2.20;;;9.80;1.00;;;;;;5092462;28;20454;-64
2021/04/30 07:14:24;;;;;;;55.60;1.90;;;9.70;1.00;;;;;;5092342;28;20491;-65
2021/04/30 07:16:52;;;;;;;55.47;2.40;;;9.60;1.00;;;;;;5092725;28;20472;-65
2021/04/30 07:19:18;;;;;;;56.37;2.47;;;9.60;1.00;;;;;;5092625;28;20448;-65
2021/04/30 07:21:45;;;;;;;55.60;2.23;;;9.60;1.00;;;;;;5092775;28;20445;-65
2021/04/30 07:24:12;;;;;;;56.00;3.10;;;9.60;1.00;;;;;;5092248;28;20488;-65
2021/04/30 07:26:38;;;;;;;55.37;2.10;;;9.60;1.00;;;;;;5092846;28;20535;-64
2021/04/30 07:29:05;;;;;;;55.60;1.97;;;9.70;1.00;;;;;;5092710;28;20887;-65
2021/04/30 07:31:31;;;;;;;55.57;2.10;;;9.70;1.00;;;;;;5092348;28;20896;-65
2021/04/30 07:33:58;;;;;;;55.40;2.07;;;9.80;1.00;;;;;;5091561;28;20451;-65
2021/04/30 07:36:24;;;;;;;55.50;1.97;;;9.80;1.00;;;;;;5092592;28;20544;-65
2021/04/30 07:38:50;;;;;;;55.53;2.00;;;9.90;1.00;;;;;;5092275;28;20448;-65
2021/04/30 07:41:17;;;;;;;56.67;3.37;;;9.90;1.00;;;;;;5092390;28;20560;-65
2021/04/30 07:43:44;;;;;;;55.77;2.63;;;10.00;1.00;;;;;;5091821;28;21090;-66
2021/04/30 07:46:10;;;;;;;55.67;2.40;;;10.00;1.00;;;;;;5092235;28;20606;-66
2021/04/30 07:48:36;;;;;;;56.77;3.50;;;10.10;1.00;;;;;;5092048;28;20472;-65
2021/04/30 07:51:03;;;;;;;55.30;1.80;;;10.10;1.00;;;;;;5092153;28;20846;-66
2021/04/30 07:53:31;;;;;;;55.77;1.80;;;10.10;1.00;;;;;;5091722;28;20444;-65
2021/04/30 07:55:58;;;;;;;56.67;2.90;;;10.10;1.00;;;;;;5092203;28;20547;-66
2021/04/30 07:58:27;;;;;;;55.37;2.20;;;10.20;1.00;;;;;;5092078;28;20444;-66
2021/04/30 08:00:55;;;;;;;56.00;2.97;;;10.20;1.00;;;;;;5091869;28;20475;-66
2021/04/30 08:03:22;;;;;;;55.57;2.13;;;10.20;1.00;;;;;;5091403;28;20575;-65
2021/04/30 08:05:49;;;;;;;56.20;2.57;;;10.30;1.00;;;;;;5091775;28;20946;-64
2021/04/30 08:08:16;;;;;;;55.27;2.00;;;10.40;1.00;;;;;;5091847;28;20957;-65
2021/04/30 08:10:42;;;;;;;55.70;2.50;;;10.30;1.00;;;;;;5092000;28;20470;-65
2021/04/30 08:13:09;;;;;;;55.77;2.10;;;10.30;1.00;;;;;;5091557;28;20536;-66
2021/04/30 08:15:36;;;;;;;55.80;1.90;;;10.40;1.00;;;;;;5091459;28;20482;-66
2021/04/30 08:18:02;;;;;;;55.80;2.30;;;10.40;1.00;;;;;;5092125;28;20485;-65
2021/04/30 08:20:29;;;;;;;55.80;2.40;;;10.30;1.00;;;;;;5091642;28;20999;-66
2021/04/30 08:22:56;;;;;;;56.07;2.43;;;10.30;1.00;;;;;;5091566;28;20644;-66
2021/04/30 08:25:22;;;;;;;55.27;1.87;;;10.30;1.00;;;;;;5090864;28;20831;-66
2021/04/30 08:27:49;;;;;;;55.50;1.83;;;10.20;1.00;;;;;;5091804;28;20871;-65
2021/04/30 08:30:16;;;;;;;55.60;2.00;;;10.20;1.00;;;;;;5091771;28;20479;-66
2021/04/30 08:32:44;;;;;;;55.33;1.90;;;10.20;1.00;;;;;;5091911;28;20529;-66
2021/04/30 08:35:10;;;;;;;55.40;1.90;;;10.20;1.00;;;;;;5091651;28;20445;-65
2021/04/30 08:37:37;;;;;;;55.30;1.90;;;10.20;1.00;;;;;;5091748;28;20912;-66
2021/04/30 08:40:05;;;;;;;55.60;1.90;;;10.20;1.00;;;;;;5091738;28;20842;-65
2021/04/30 08:42:32;;;;;;;55.43;2.00;;;10.20;1.00;;;;;;5091270;28;20683;-65
2021/04/30 08:44:59;;;;;;;55.50;1.90;;;10.20;1.00;;;;;;5091286;28;20540;-65
2021/04/30 08:47:25;;;;;;;55.30;2.10;;;10.20;1.00;;;;;;5091877;28;20474;-65
2021/04/30 08:49:56;;;;;;;55.33;1.90;;;10.20;1.00;;;;;;5091398;28;21035;-66
2021/04/30 08:52:22;;;;;;;55.50;2.00;;;10.30;1.00;;;;;;5091048;28;20465;-65
2021/04/30 08:54:52;;;;;;;55.23;2.00;;;10.40;1.00;;;;;;5091403;28;20531;-65
2021/04/30 08:57:21;;;;;;;55.47;1.90;;;10.50;1.00;;;;;;5091274;28;20509;-65
2021/04/30 08:59:48;;;;;;;55.47;2.00;;;10.60;1.00;;;;;;5091537;28;20559;-66
2021/04/30 09:02:15;;;;;;;55.50;1.97;;;10.70;1.00;;;;;;5090974;28;20456;-65
2021/04/30 09:04:41;;;;;;;55.40;2.00;;;10.80;1.00;;;;;;5091441;28;20821;-66
2021/04/30 09:07:19;;;;;;;55.40;1.87;;;10.80;1.00;;;;;;5091446;28;20450;-65
2021/04/30 09:10:04;;;;;;;55.57;2.10;;;10.80;1.00;;;;;;5091895;28;20501;-66
2021/04/30 09:12:31;;;;;;;57.10;2.30;;;10.80;1.00;;;;;;5091107;28;20480;-65
2021/04/30 09:14:58;;;;;;;55.17;1.90;;;10.80;1.00;;;;;;5091352;28;20452;-65
2021/04/30 09:17:27;;;;;;;55.60;1.90;;;10.80;1.00;;;;;;5091610;28;20848;-64
2021/04/30 09:19:56;;;;;;;55.63;2.87;;;10.80;1.00;;;;;;5091349;28;20847;-64
2021/04/30 09:22:25;;;;;;;55.70;2.30;;;10.90;1.00;;;;;;5090837;28;20456;-65
2021/04/30 09:24:54;;;;;;;55.67;2.00;;;11.00;1.00;;;;;;5091301;28;20449;-65
2021/04/30 09:27:38;;;;;;;55.23;1.87;;;11.00;1.00;;;;;;5091398;28;20540;-65
2021/04/30 09:30:19;;;;;;;55.60;2.00;;;11.00;1.00;;;;;;5091131;28;20596;-65
2021/04/30 09:33:07;;;;;;;55.70;2.30;;;10.90;1.00;;;;;;5090715;28;20526;-65
2021/04/30 09:35:35;;;;;;;56.10;2.87;;;10.80;1.00;;;;;;5091517;28;20460;-65
2021/04/30 09:38:14;;;;;;;55.57;2.17;;;10.70;1.00;;;;;;5094742;28;20457;-65
2021/04/30 09:40:41;;;;;;;55.47;1.90;;;10.50;1.00;;;;;;5087838;28;20827;-65
2021/04/30 09:43:11;;;;;;;55.17;1.90;;;10.40;1.00;;;;;;5084588;28;20538;-65
2021/04/30 09:45:38;;;;;;;55.37;1.97;;;10.40;1.00;;;;;;5078147;28;20474;-65
2021/04/30 09:48:06;;;;;;;55.47;1.97;;;10.40;1.00;;;;;;5094262;28;20493;-65
2021/04/30 09:50:33;;;;;;;55.27;1.80;;;10.50;1.00;;;;;;5094044;28;20465;-65
2021/04/30 09:53:03;;;;;;;55.50;1.90;;;10.60;1.00;;;;;;5093967;28;20445;-64
2021/04/30 09:55:40;;;;;;;55.77;2.00;;;10.80;1.00;;;;;;5093964;28;20457;-65
2021/04/30 09:58:14;;;;;;;55.37;2.00;;;10.90;1.00;;;;;;5094061;28;20475;-65
2021/04/30 10:00:41;;;;;;;55.50;2.10;;;10.90;1.00;;;;;;5093885;28;20970;-65
2021/04/30 10:03:19;;;;;;;55.33;1.90;;;10.90;1.00;;;;;;5093736;28;20480;-65
2021/04/30 10:06:05;;;;;;;55.47;1.90;;;10.90;1.00;;;;;;5093688;28;20540;-66
2021/04/30 10:08:34;;;;;;;55.40;2.10;;;11.00;1.00;;;;;;5094045;28;20816;-66
2021/04/30 10:11:00;;;;;;;55.23;1.90;;;11.00;1.00;;;;;;5093873;28;20885;-65
2021/04/30 10:13:27;;;;;;;55.83;2.10;;;10.90;1.00;;;;;;5093819;28;20557;-65
2021/04/30 10:15:53;;;;;;;55.37;2.10;;;10.90;1.00;;;;;;5093666;28;20542;-65
2021/04/30 10:18:20;;;;;;;55.40;1.90;;;10.80;1.00;;;;;;5093714;28;20478;-66
2021/04/30 10:20:47;;;;;;;55.33;2.27;;;10.70;1.00;;;;;;5093417;28;20504;-65
2021/04/30 10:23:19;;;;;;;55.33;2.10;;;10.60;1.00;;;;;;5093497;28;20584;-65
2021/04/30 10:25:48;;;;;;;55.57;2.00;;;10.50;1.00;;;;;;5093599;28;20801;-66
2021/04/30 10:28:21;;;;;;;55.27;2.00;;;10.50;1.00;;;;;;5093484;28;20488;-65
2021/04/30 10:30:54;;;;;;;55.23;2.20;;;10.60;1.00;;;;;;5093655;28;20558;-65
2021/04/30 10:33:26;;;;;;;55.40;1.93;;;10.60;1.00;;;;;;5093013;28;20954;-65
2021/04/30 10:36:02;;;;;;;55.50;2.03;;;10.60;1.00;;;;;;5093354;28;20445;-65
2021/04/30 10:38:31;;;;;;;55.67;2.83;;;10.60;1.00;;;;;;5093096;28;20536;-66
2021/04/30 10:41:01;;;;;;;55.37;1.90;;;10.60;1.00;;;;;;5093730;28;20712;-65
2021/04/30 10:43:28;;;;;;;55.47;1.90;;;10.50;1.00;;;;;;5092816;28;20481;-65
2021/04/30 10:45:59;;;;;;;55.57;1.90;;;10.40;1.00;;;;;;5092873;28;20456;-65
2021/04/30 10:48:26;;;;;;;56.30;2.00;;;10.30;1.00;;;;;;5092415;28;20453;-65
2021/04/30 10:50:52;;;;;;;55.40;1.80;;;10.10;1.00;;;;;;5093110;28;20485;-66
2021/04/30 10:53:26;;;;;;;55.60;1.90;;;10.00;1.00;;;;;;5092810;28;20830;-65
2021/04/30 10:55:53;;;;;;;55.53;1.87;;;9.90;1.00;;;;;;5092814;28;20825;-65
2021/04/30 10:58:35;;;;;;;55.47;2.00;;;9.80;1.00;;;;;;5092690;28;20449;-65
2021/04/30 11:01:27;;;;;;;55.37;1.80;;;9.60;1.00;;;;;;5092798;28;20472;-65
2021/04/30 11:04:27;;;;;;;55.23;1.70;;;9.50;1.00;;;;;;5078009;28;20510;-65
2021/04/30 11:06:53;;;;;;;55.47;1.90;;;9.30;1.00;;;;;;5030329;28;20498;-65
2021/04/30 11:09:34;;;;;;;55.87;2.00;;;9.20;1.00;;;;;;5030091;28;20466;-65
2021/04/30 11:12:02;;;;;;;55.60;1.80;;;9.10;1.00;;;;;;5063644;28;20883;-65
2021/04/30 11:14:32;;;;;;;55.45;2.03;;;9.00;1.00;;;;;;5092476;28;20451;-66
2021/04/30 11:17:00;;;;;;;55.60;2.00;;;9.00;1.00;;;;;;5092188;28;20411;-66
2021/04/30 11:19:28;;;;;;;55.47;1.95;;;8.90;1.00;;;;;;5092617;28;20266;-66
2021/04/30 11:21:55;;;;;;;55.43;1.83;;;8.80;1.00;;;;;;5091505;28;20204;-67
2021/04/30 11:24:42;;;;;;;55.47;2.00;;;8.70;1.00;;;;;;5090030;28;20485;-67
2021/04/30 11:27:38;;;;;;;55.50;1.90;;;8.50;1.00;;;;;;5091932;28;20201;-67
2021/04/30 11:30:22;;;;;;;57.10;2.50;;;8.30;1.00;;;;;;5084246;28;20317;-66
2021/04/30 11:32:51;;;;;;;55.60;2.20;;;8.20;1.00;;;;;;5091960;28;20205;-67
2021/04/30 11:35:18;;;;;;;55.78;2.00;;;8.10;1.00;;;;;;5092123;28;20458;-67
2021/04/30 11:37:46;;;;;;;55.27;1.73;;;8.10;1.00;;;;;;5092190;28;20259;-67
2021/04/30 11:40:13;;;;;;;55.60;2.00;;;8.10;1.00;;;;;;5092289;28;20474;-67
2021/04/30 11:42:40;;;;;;;55.67;2.28;;;8.00;1.00;;;;;;5092054;28;20492;-67
2021/04/30 11:45:08;;;;;;;55.58;1.90;;;8.00;1.00;;;;;;5092079;28;20204;-67
2021/04/30 11:47:38;;;;;;;58.85;2.78;;;7.90;1.00;;;;;;5092150;28;20288;-67
2021/04/30 11:50:07;;;;;;;55.70;2.63;;;8.00;1.00;;;;;;5092364;28;20217;-66
2021/04/30 11:52:38;;;;;;;55.60;2.00;;;8.00;1.00;;;;;;5091658;28;20554;-67
2021/04/30 11:55:07;;;;;;;55.60;1.90;;;8.00;1.00;;;;;;5088558;28;20212;-67
2021/04/30 11:57:33;;;;;;;55.67;2.30;;;7.90;1.00;;;;;;5075819;28;20213;-66
2021/04/30 11:59:59;;;;;;;55.63;2.20;;;7.80;1.00;;;;;;5091158;28;20311;-67
2021/04/30 12:02:27;;;;;;;55.78;1.95;;;7.70;1.00;;;;;;5091640;28;20543;-67
2021/04/30 12:04:55;;;;;;;55.67;2.00;;;7.60;1.00;;;;;;5091653;28;20692;-67
2021/04/30 12:07:23;;;;;;;55.80;2.20;;;7.60;1.00;;;;;;5092316;28;20200;-67
2021/04/30 12:09:51;;;;;;;55.60;2.00;;;7.50;1.00;;;;;;5091929;28;20255;-67
2021/04/30 12:12:22;;;;;;;57.03;3.05;;;7.50;1.00;;;;;;5091643;28;20681;-66
2021/04/30 12:14:55;;;;;;;56.70;3.15;;;7.40;1.00;;;;;;5091784;28;20213;-68
2021/04/30 12:17:26;;;;;;;55.60;2.20;;;7.40;1.00;;;;;;5091524;28;20200;-67
2021/04/30 12:19:58;;;;;;;55.80;2.28;;;7.30;1.00;;;;;;5091945;28;20227;-67
2021/04/30 12:22:25;;;;;;;55.70;2.10;;;7.30;1.00;;;;;;5091542;28;20241;-67
2021/04/30 12:24:52;;;;;;;55.78;2.15;;;7.20;1.00;;;;;;5091673;28;20300;-67
2021/04/30 12:27:26;;;;;;;57.35;2.60;;;7.20;1.00;;;;;;5083348;28;20301;-67
2021/04/30 12:29:54;;;;;;;55.90;2.22;;;7.10;1.00;;;;;;5079823;28;20323;-67
2021/04/30 12:32:27;;;;;;;56.10;2.60;;;7.10;1.00;;;;;;5091256;28;20229;-68
2021/04/30 12:34:56;;;;;;;55.78;2.00;;;7.10;1.00;;;;;;5091392;28;20737;-67
2021/04/30 12:37:24;;;;;;;55.80;2.30;;;7.10;1.00;;;;;;5091773;28;20212;-67
2021/04/30 12:39:51;;;;;;;55.70;1.90;;;7.10;1.00;;;;;;5091607;28;20319;-68
2021/04/30 12:42:17;;;;;;;55.67;2.10;;;7.20;1.00;;;;;;5091107;28;20254;-67
2021/04/30 12:44:52;;;;;;;55.70;2.50;;;7.20;1.00;;;;;;5091464;28;20256;-67
2021/04/30 12:47:19;;;;;;;55.90;2.15;;;7.30;1.00;;;;;;5091611;28;20208;-67
2021/04/30 12:49:45;;;;;;;55.70;2.10;;;7.40;1.00;;;;;;5091463;28;20224;-67
2021/04/30 12:52:12;;;;;;;55.67;2.10;;;7.40;1.00;;;;;;5090939;28;20305;-67
2021/04/30 12:54:39;;;;;;;55.78;2.17;;;7.40;1.00;;;;;;5091214;28;20296;-67
2021/04/30 12:57:10;;;;;;;55.67;2.10;;;7.50;1.00;;;;;;5091871;28;20266;-67
2021/04/30 12:59:36;;;;;;;55.90;2.00;;;7.60;1.00;;;;;;5087817;28;20228;-67